createdAt,value
2022-08-01T00:01:14.548Z,1.80
2022-08-01T00:03:41.779Z,2.08
2022-08-01T00:06:08.978Z,1.98
2022-08-01T00:08:36.204Z,1.98
2022-08-01T00:11:03.565Z,2.05
2022-08-01T00:13:30.784Z,1.83
2022-08-01T00:15:57.958Z,1.77
2022-08-01T00:18:25.172Z,1.88
2022-08-01T00:20:52.382Z,2.03
2022-08-01T00:23:19.700Z,2.20
2022-08-01T00:25:46.882Z,2.30
2022-08-01T00:28:14.498Z,1.77
2022-08-01T00:30:41.696Z,2.35
2022-08-01T00:33:09.320Z,2.33
2022-08-01T00:35:36.551Z,2.15
2022-08-01T00:38:03.862Z,2.30
2022-08-01T00:40:31.084Z,2.15
2022-08-01T00:42:58.270Z,2.20
2022-08-01T00:45:25.517Z,2.25
2022-08-01T00:47:55.155Z,2.40
2022-08-01T00:50:22.779Z,2.65
2022-08-01T00:52:52.497Z,2.58
2022-08-01T00:55:20.293Z,2.60
2022-08-01T00:58:03.884Z,2.75
2022-08-01T01:00:35.020Z,2.25
2022-08-01T01:03:26.292Z,2.60
2022-08-01T01:06:12.870Z,2.58
2022-08-01T01:09:05.652Z,2.40
2022-08-01T01:12:45.836Z,2.63
2022-08-01T01:16:12.535Z,2.58
2022-08-01T01:19:26.240Z,2.50
2022-08-01T01:25:38.900Z,2.25
2022-08-01T01:28:33.120Z,2.50
2022-08-01T01:31:05.500Z,2.67
2022-08-01T01:33:48.583Z,3.15
2022-08-01T01:36:16.401Z,3.03
2022-08-01T01:38:45.771Z,2.20
2022-08-01T01:41:14.257Z,2.50
2022-08-01T01:43:41.715Z,2.70
2022-08-01T01:46:31.393Z,2.75
2022-08-01T01:49:29.156Z,2.67
2022-08-01T01:52:02.182Z,2.45
2022-08-01T01:55:24.735Z,2.72
2022-08-01T01:57:57.118Z,2.75
2022-08-01T02:00:55.910Z,2.72
2022-08-01T02:03:23.880Z,2.75
2022-08-01T02:05:53.057Z,2.80
2022-08-01T02:08:21.377Z,2.67
2022-08-01T02:11:07.577Z,2.80
2022-08-01T02:13:36.361Z,2.60
2022-08-01T02:16:04.987Z,3.03
2022-08-01T02:18:32.849Z,2.72
2022-08-01T02:21:01.110Z,3.05
2022-08-01T02:23:33.817Z,2.50
2022-08-01T02:26:11.424Z,3.00
2022-08-01T02:28:51.435Z,2.83
2022-08-01T02:31:21.553Z,2.92
2022-08-01T02:33:57.892Z,3.13
2022-08-01T02:36:30.854Z,2.80
2022-08-01T02:39:01.887Z,2.58
2022-08-01T02:41:29.438Z,2.70
2022-08-01T02:44:00.547Z,2.72
2022-08-01T02:49:01.772Z,2.83
2022-08-01T02:51:30.106Z,2.60
2022-08-01T02:53:58.757Z,2.80
2022-08-01T02:56:35.578Z,2.50
2022-08-01T02:59:15.416Z,2.83
2022-08-01T03:01:46.009Z,3.28
2022-08-01T03:04:14.460Z,2.70
2022-08-01T03:06:45.017Z,2.50
2022-08-01T03:11:42.770Z,2.67
2022-08-01T03:14:11.216Z,2.70
2022-08-01T03:16:40.351Z,2.88
2022-08-01T03:19:09.933Z,2.08
2022-08-01T03:21:38.121Z,2.90
2022-08-01T03:24:06.467Z,2.28
2022-08-01T03:26:35.987Z,2.25
2022-08-01T03:29:10.787Z,2.45
2022-08-01T03:31:39.247Z,2.50
2022-08-01T03:34:07.162Z,2.60
2022-08-01T03:36:35.093Z,2.80
2022-08-01T03:39:04.661Z,2.05
2022-08-01T03:41:37.697Z,2.63
2022-08-01T03:44:16.988Z,2.60
2022-08-01T03:46:47.746Z,2.38
2022-08-01T03:49:19.765Z,2.45
2022-08-01T03:51:50.359Z,2.70
2022-08-01T03:54:25.107Z,2.80
2022-08-01T03:56:52.868Z,2.20
2022-08-01T03:59:20.983Z,2.13
2022-08-01T04:01:48.256Z,2.33
2022-08-01T04:04:15.774Z,2.35
2022-08-01T04:06:45.745Z,2.20
2022-08-01T04:09:13.984Z,2.70
2022-08-01T04:11:42.004Z,2.17
2022-08-01T04:14:09.595Z,2.67
2022-08-01T04:16:36.823Z,2.20
2022-08-01T04:19:04.085Z,1.90
2022-08-01T04:21:32.803Z,2.08
2022-08-01T04:24:07.699Z,2.00
2022-08-01T04:26:37.456Z,2.00
2022-08-01T04:29:06.207Z,1.98
2022-08-01T04:31:33.999Z,1.73
2022-08-01T04:34:03.066Z,2.13
2022-08-01T04:36:30.634Z,2.00
2022-08-01T04:39:01.004Z,2.30
2022-08-01T04:41:28.388Z,2.05
2022-08-01T04:43:56.740Z,1.98
2022-08-01T04:46:24.177Z,2.70
2022-08-01T04:48:51.568Z,2.15
2022-08-01T04:51:22.855Z,1.80
2022-08-01T04:53:51.949Z,1.85
2022-08-01T04:56:20.155Z,2.20
2022-08-01T04:58:47.680Z,2.65
2022-08-01T05:01:15.257Z,2.55
2022-08-01T05:03:42.554Z,2.40
2022-08-01T05:06:10.002Z,2.28
2022-08-01T05:08:37.362Z,2.08
2022-08-01T05:11:04.785Z,2.50
2022-08-01T05:13:32.026Z,2.25
2022-08-01T05:15:59.224Z,2.10
2022-08-01T05:18:28.420Z,2.15
2022-08-01T05:20:56.113Z,1.92
2022-08-01T05:23:42.352Z,2.38
2022-08-01T05:26:11.477Z,2.30
2022-08-01T05:28:42.509Z,2.30
2022-08-01T05:31:09.705Z,2.13
2022-08-01T05:33:36.913Z,2.60
2022-08-01T05:36:04.391Z,2.30
2022-08-01T05:38:31.594Z,2.20
2022-08-01T05:40:58.786Z,2.20
2022-08-01T05:43:28.986Z,2.20
2022-08-01T05:45:56.547Z,2.40
2022-08-01T05:48:23.727Z,2.05
2022-08-01T05:50:54.696Z,1.67
2022-08-01T05:53:25.323Z,1.77
2022-08-01T05:55:52.506Z,1.50
2022-08-01T05:58:19.691Z,1.70
2022-08-01T06:00:46.919Z,1.70
2022-08-01T06:03:15.320Z,1.85
2022-08-01T06:05:42.506Z,1.92
2022-08-01T06:08:09.698Z,2.00
2022-08-01T06:10:36.966Z,2.40
2022-08-01T06:13:04.307Z,2.05
2022-08-01T06:15:34.731Z,1.70
2022-08-01T06:18:01.949Z,1.55
2022-08-01T06:20:29.195Z,1.70
2022-08-01T06:22:56.504Z,1.63
2022-08-01T06:27:54.329Z,1.70
2022-08-01T06:30:21.572Z,1.75
2022-08-01T06:32:48.801Z,1.60
2022-08-01T06:35:16.776Z,1.75
2022-08-01T06:37:45.700Z,1.60
2022-08-01T06:40:17.109Z,1.30
2022-08-01T06:42:46.642Z,1.27
2022-08-01T06:45:14.503Z,1.40
2022-08-01T06:47:42.576Z,1.55
2022-08-01T06:50:11.026Z,1.40
2022-08-01T06:52:38.788Z,1.30
2022-08-01T06:55:06.339Z,1.73
2022-08-01T06:57:33.850Z,1.42
2022-08-01T07:00:11.687Z,1.30
2022-08-01T07:02:38.992Z,1.40
2022-08-01T07:05:06.484Z,1.80
2022-08-01T07:07:33.672Z,2.13
2022-08-01T07:10:00.856Z,2.42
2022-08-01T07:12:28.090Z,2.38
2022-08-01T07:14:55.285Z,2.58
2022-08-01T07:17:22.770Z,2.20
2022-08-01T07:19:50.154Z,2.20
2022-08-01T07:22:23.153Z,2.47
2022-08-01T07:24:54.599Z,2.10
2022-08-01T07:27:26.209Z,2.55
2022-08-01T07:30:10.547Z,2.10
2022-08-01T07:32:42.008Z,2.03
2022-08-01T07:38:12.339Z,2.40
2022-08-01T07:40:51.396Z,1.90
2022-08-01T07:43:40.081Z,2.22
2022-08-01T07:46:24.106Z,2.10
2022-08-01T07:48:51.366Z,2.10
2022-08-01T07:54:33.045Z,2.42
2022-08-01T07:57:33.025Z,2.20
2022-08-01T08:00:21.479Z,2.20
2022-08-01T08:02:48.733Z,2.10
2022-08-01T08:05:16.139Z,2.10
2022-08-01T08:08:30.280Z,2.08
2022-08-01T08:11:02.367Z,2.33
2022-08-01T08:14:01.415Z,2.33
2022-08-01T08:16:30.029Z,2.30
2022-08-01T08:19:10.797Z,2.28
2022-08-01T08:22:01.518Z,2.65
2022-08-01T08:24:56.512Z,2.38
2022-08-01T08:28:01.386Z,2.10
2022-08-01T08:30:29.326Z,2.05
2022-08-01T08:33:02.273Z,2.47
2022-08-01T08:35:53.701Z,2.15
2022-08-01T08:38:21.554Z,2.10
2022-08-01T08:40:56.097Z,2.00
2022-08-01T08:43:25.419Z,2.10
2022-08-01T08:45:59.226Z,2.20
2022-08-01T08:48:27.999Z,2.20
2022-08-01T08:50:55.482Z,2.40
2022-08-01T08:53:23.065Z,2.50
2022-08-01T08:55:56.041Z,2.13
2022-08-01T08:58:30.646Z,2.53
2022-08-01T09:00:59.145Z,2.40
2022-08-01T09:03:26.577Z,2.20
2022-08-01T09:05:53.973Z,3.75
2022-08-01T09:08:21.188Z,2.75
2022-08-01T09:10:48.395Z,3.30
2022-08-01T09:13:16.514Z,2.33
2022-08-01T09:15:51.846Z,3.60
2022-08-01T09:18:33.024Z,2.55
2022-08-01T09:21:20.340Z,2.70
2022-08-01T09:23:54.246Z,2.33
2022-08-01T09:26:42.409Z,2.60
2022-08-01T09:29:38.375Z,2.58
2022-08-01T09:32:08.238Z,2.78
2022-08-01T09:34:41.168Z,2.72
2022-08-01T09:37:10.452Z,2.53
2022-08-01T09:39:41.064Z,2.33
2022-08-01T09:42:28.969Z,2.50
2022-08-01T09:44:57.152Z,2.63
2022-08-01T09:47:39.179Z,2.42
2022-08-01T09:50:11.109Z,2.53
2022-08-01T09:52:39.034Z,2.42
2022-08-01T09:55:09.963Z,2.60
2022-08-01T09:57:37.163Z,3.10
2022-08-01T10:00:05.839Z,2.75
2022-08-01T10:02:38.543Z,3.20
2022-08-01T10:05:08.944Z,2.90
2022-08-01T10:08:00.126Z,2.90
2022-08-01T10:10:28.936Z,2.90
2022-08-01T10:12:58.360Z,2.65
2022-08-01T10:15:37.511Z,3.22
2022-08-01T10:18:16.175Z,2.97
2022-08-01T10:20:56.595Z,2.88
2022-08-01T10:23:39.907Z,2.38
2022-08-01T10:26:09.008Z,2.60
2022-08-01T10:28:38.597Z,2.83
2022-08-01T10:31:12.654Z,2.90
2022-08-01T10:33:52.275Z,2.88
2022-08-01T10:36:25.323Z,2.70
2022-08-01T10:38:56.504Z,2.60
2022-08-01T10:41:24.612Z,2.70
2022-08-01T10:43:52.698Z,2.80
2022-08-01T10:46:20.772Z,3.05
2022-08-01T10:48:58.787Z,2.78
2022-08-01T10:51:51.317Z,2.85
2022-08-01T10:54:14.403Z,4.35
2022-08-01T10:56:47.173Z,2.92
2022-08-01T10:59:49.170Z,2.80
2022-08-01T11:02:13.471Z,2.60
2022-08-01T11:05:05.960Z,2.75
2022-08-01T11:07:46.473Z,2.20
2022-08-01T11:10:31.907Z,2.40
2022-08-01T11:13:02.005Z,2.92
2022-08-01T11:15:31.673Z,2.78
2022-08-01T11:18:01.161Z,2.60
2022-08-01T11:20:34.231Z,2.40
2022-08-01T11:23:02.388Z,2.92
2022-08-01T11:26:03.872Z,2.40
2022-08-01T11:28:34.860Z,2.92
2022-08-01T11:31:11.589Z,2.95
2022-08-01T11:33:46.500Z,2.38
2022-08-01T11:36:15.273Z,2.45
2022-08-01T11:39:01.352Z,2.90
2022-08-01T11:41:38.563Z,2.60
2022-08-01T11:44:15.207Z,2.65
2022-08-01T11:46:57.035Z,2.70
2022-08-01T11:49:30.471Z,2.50
2022-08-01T11:52:02.273Z,2.70
2022-08-01T11:54:37.207Z,2.80
2022-08-01T11:57:07.965Z,2.72
2022-08-01T12:00:02.652Z,2.95
2022-08-01T12:02:35.305Z,2.90
2022-08-01T12:05:11.891Z,2.90
2022-08-01T12:07:40.203Z,3.50
2022-08-01T12:10:09.717Z,2.63
2022-08-01T12:12:38.092Z,2.40
2022-08-01T12:15:10.095Z,3.17
2022-08-01T12:17:45.885Z,2.70
2022-08-01T12:20:30.078Z,2.90
2022-08-01T12:23:00.483Z,2.75
2022-08-01T12:25:27.811Z,2.88
2022-08-01T12:27:56.764Z,2.70
2022-08-01T12:30:28.047Z,2.60
2022-08-01T12:32:55.861Z,2.65
2022-08-01T12:35:27.315Z,2.95
2022-08-01T12:38:03.376Z,2.88
2022-08-01T12:40:33.768Z,2.55
2022-08-01T12:43:06.089Z,2.72
2022-08-01T12:45:54.526Z,2.60
2022-08-01T12:48:25.324Z,2.90
2022-08-01T12:50:54.001Z,2.97
2022-08-01T12:53:22.276Z,2.70
2022-08-01T12:55:59.001Z,2.90
2022-08-01T12:58:32.575Z,2.45
2022-08-01T13:01:11.574Z,2.88
2022-08-01T13:03:39.671Z,2.67
2022-08-01T13:06:15.887Z,3.20
2022-08-01T13:08:43.964Z,2.80
2022-08-01T13:11:17.444Z,2.80
2022-08-01T13:13:50.241Z,2.70
2022-08-01T13:16:56.398Z,2.60
2022-08-01T13:19:59.054Z,2.47
2022-08-01T13:22:57.053Z,2.90
2022-08-01T13:25:57.202Z,2.70
2022-08-01T13:28:56.280Z,2.45
2022-08-01T13:31:46.524Z,2.67
2022-08-01T13:39:00.614Z,3.05
2022-08-01T13:47:41.285Z,2.70
2022-08-01T13:50:28.651Z,2.65
2022-08-01T13:52:56.010Z,2.50
2022-08-01T13:55:23.222Z,2.70
2022-08-01T13:57:51.146Z,2.65
2022-08-01T14:00:18.559Z,2.60
2022-08-01T14:02:45.761Z,2.53
2022-08-01T14:05:13.606Z,2.92
2022-08-01T14:07:41.351Z,2.90
2022-08-01T14:10:20.019Z,2.80
2022-08-01T14:12:48.897Z,2.40
2022-08-01T14:15:18.239Z,2.95
2022-08-01T14:18:05.811Z,2.55
2022-08-01T14:20:47.409Z,2.70
2022-08-01T14:23:40.842Z,2.95
2022-08-01T14:28:44.151Z,2.50
2022-08-01T14:31:11.913Z,2.60
2022-08-01T14:33:55.302Z,2.90
2022-08-01T14:36:29.362Z,2.88
2022-08-01T14:39:20.411Z,2.60
2022-08-01T14:41:58.822Z,2.70
2022-08-01T14:44:56.497Z,2.63
2022-08-01T14:47:35.593Z,2.78
2022-08-01T14:50:03.816Z,2.80
2022-08-01T14:52:31.063Z,3.15
2022-08-01T14:54:58.333Z,3.25
2022-08-01T14:57:25.791Z,3.08
2022-08-01T14:59:53.190Z,3.20
2022-08-01T15:02:20.413Z,2.80
2022-08-01T15:04:48.830Z,3.25
2022-08-01T15:07:16.933Z,2.92
2022-08-01T15:09:44.518Z,3.33
2022-08-01T15:12:12.414Z,3.33
2022-08-01T15:14:48.969Z,3.20
2022-08-01T15:17:25.163Z,3.22
2022-08-01T15:19:56.395Z,3.17
2022-08-01T15:22:24.902Z,3.40
2022-08-01T15:24:57.293Z,3.22
2022-08-01T15:27:25.339Z,3.10
2022-08-01T15:29:53.358Z,3.30
2022-08-01T15:32:20.854Z,3.60
2022-08-01T15:34:48.281Z,3.03
2022-08-01T15:37:16.036Z,3.05
2022-08-01T15:39:43.338Z,3.05
2022-08-01T15:42:12.893Z,2.67
2022-08-01T15:44:46.624Z,2.97
2022-08-01T15:47:13.918Z,3.35
2022-08-01T15:49:41.327Z,2.80
2022-08-01T15:52:22.117Z,2.63
2022-08-01T15:54:50.364Z,3.10
2022-08-01T15:57:17.838Z,2.83
2022-08-01T15:59:45.082Z,3.17
2022-08-01T16:02:12.313Z,2.75
2022-08-01T16:04:39.589Z,3.05
2022-08-01T16:07:08.286Z,2.75
2022-08-01T16:09:35.552Z,2.45
2022-08-01T16:12:02.803Z,2.70
2022-08-01T16:14:30.093Z,2.75
2022-08-01T16:16:57.273Z,2.42
2022-08-01T16:19:24.516Z,2.92
2022-08-01T16:21:52.301Z,2.42
2022-08-01T16:24:19.539Z,2.80
2022-08-01T16:26:46.736Z,2.40
2022-08-01T16:29:13.964Z,2.30
2022-08-01T16:31:53.058Z,2.20
2022-08-01T16:34:28.541Z,2.30
2022-08-01T16:36:56.188Z,1.88
2022-08-01T16:39:23.817Z,2.15
2022-08-01T16:41:55.205Z,1.98
2022-08-01T16:44:33.374Z,1.80
2022-08-01T16:47:02.525Z,2.00
2022-08-01T16:49:30.205Z,1.75
2022-08-01T16:51:57.516Z,1.60
2022-08-01T16:54:26.435Z,1.60
2022-08-01T16:56:54.582Z,1.88
2022-08-01T16:59:23.315Z,1.40
2022-08-01T17:02:00.655Z,1.40
2022-08-01T17:04:30.077Z,1.60
2022-08-01T17:06:57.548Z,1.38
2022-08-01T17:09:24.935Z,1.63
2022-08-01T17:11:52.279Z,1.52
2022-08-01T17:14:19.622Z,1.55
2022-08-01T17:16:46.862Z,1.67
2022-08-01T17:19:14.827Z,1.48
2022-08-01T17:21:42.592Z,2.22
2022-08-01T17:24:10.163Z,1.52
2022-08-01T17:26:39.653Z,1.40
2022-08-01T17:29:06.834Z,1.65
2022-08-01T17:31:34.080Z,1.80
2022-08-01T17:34:01.316Z,1.70
2022-08-01T17:36:28.604Z,1.50
2022-08-01T17:38:55.910Z,1.48
2022-08-01T17:41:23.178Z,3.28
2022-08-01T17:43:50.391Z,1.80
2022-08-01T17:46:18.098Z,1.88
2022-08-01T17:48:46.596Z,1.38
2022-08-01T17:51:17.080Z,1.50
2022-08-01T17:53:53.164Z,1.60
2022-08-01T17:56:25.323Z,1.77
2022-08-01T17:58:52.635Z,1.52
2022-08-01T18:01:20.637Z,1.42
2022-08-01T18:03:48.189Z,1.98
2022-08-01T18:06:23.236Z,1.88
2022-08-01T18:08:53.094Z,1.52
2022-08-01T18:11:22.975Z,1.63
2022-08-01T18:13:52.023Z,1.30
2022-08-01T18:16:19.505Z,1.65
2022-08-01T18:18:46.877Z,1.40
2022-08-01T18:21:14.119Z,1.42
2022-08-01T18:23:51.286Z,1.98
2022-08-01T18:26:54.277Z,1.63
2022-08-01T18:29:47.971Z,1.60
2022-08-01T18:34:51.444Z,1.75
2022-08-01T18:37:19.489Z,1.73
2022-08-01T18:39:50.246Z,1.20
2022-08-01T18:42:18.053Z,1.50
2022-08-01T18:44:45.295Z,1.50
2022-08-01T18:47:12.510Z,1.40
2022-08-01T18:49:39.768Z,1.42
2022-08-01T18:52:07.050Z,1.58
2022-08-01T18:54:47.155Z,1.40
2022-08-01T18:57:16.066Z,1.55
2022-08-01T19:00:16.263Z,1.60
2022-08-01T19:03:00.004Z,1.70
2022-08-01T19:05:27.241Z,1.67
2022-08-01T19:08:04.760Z,1.83
2022-08-01T19:10:39.025Z,1.75
2022-08-01T19:13:07.727Z,1.50
2022-08-01T19:15:35.719Z,1.75
2022-08-01T19:18:03.249Z,1.63
2022-08-01T19:20:30.760Z,1.60
2022-08-01T19:22:58.207Z,1.40
2022-08-01T19:25:25.426Z,1.63
2022-08-01T19:27:53.300Z,1.40
2022-08-01T19:30:20.491Z,1.10
2022-08-01T19:32:48.991Z,1.20
2022-08-01T19:35:17.025Z,1.33
2022-08-01T19:37:47.131Z,1.42
2022-08-01T19:40:27.245Z,1.40
2022-08-01T19:45:24.492Z,1.50
2022-08-01T19:47:57.062Z,1.60
2022-08-01T19:50:26.320Z,1.60
2022-08-01T19:52:55.368Z,1.25
2022-08-01T19:55:24.610Z,1.50
2022-08-01T20:00:40.991Z,1.60
2022-08-01T20:03:09.120Z,1.60
2022-08-01T20:05:37.302Z,1.45
2022-08-01T20:08:06.754Z,1.70
2022-08-01T20:10:37.449Z,1.20
2022-08-01T20:13:05.389Z,1.40
2022-08-01T20:15:32.869Z,1.30
2022-08-01T20:18:00.531Z,1.40
2022-08-01T20:20:28.144Z,1.58
2022-08-01T20:22:57.692Z,1.00
2022-08-01T20:25:33.551Z,1.40
2022-08-01T20:28:10.612Z,1.20
2022-08-01T20:30:40.023Z,1.10
2022-08-01T20:33:08.670Z,1.23
2022-08-01T20:35:53.344Z,1.40
2022-08-01T20:38:27.727Z,1.30
2022-08-01T20:40:58.810Z,1.30
2022-08-01T20:43:27.571Z,1.20
2022-08-01T20:45:55.972Z,1.30
2022-08-01T20:48:25.679Z,1.42
2022-08-01T20:51:11.354Z,1.50
2022-08-01T20:53:43.026Z,1.30
2022-08-01T20:56:16.323Z,1.27
2022-08-01T20:58:50.162Z,1.60
2022-08-01T21:01:22.406Z,1.30
2022-08-01T21:04:23.444Z,1.35
2022-08-01T21:09:23.739Z,1.50
2022-08-01T21:12:01.010Z,1.55
2022-08-01T21:14:43.840Z,1.40
2022-08-01T21:17:18.056Z,1.20
2022-08-01T21:19:47.246Z,1.55
2022-08-01T21:22:27.043Z,1.38
2022-08-01T21:24:59.108Z,1.30
2022-08-01T21:27:33.035Z,1.50
2022-08-01T21:30:04.417Z,1.23
2022-08-01T21:32:35.472Z,1.40
2022-08-01T21:35:04.545Z,1.30
2022-08-01T21:37:32.100Z,1.40
2022-08-01T21:40:09.573Z,1.50
2022-08-01T21:42:39.508Z,1.27
2022-08-01T21:45:09.479Z,1.45
2022-08-01T21:47:37.003Z,1.60
2022-08-01T21:50:05.129Z,1.50
2022-08-01T21:52:47.149Z,1.42
2022-08-01T21:55:37.862Z,2.05
2022-08-01T21:58:32.393Z,1.52
2022-08-01T22:01:10.559Z,1.20
2022-08-01T22:03:43.444Z,1.27
2022-08-01T22:06:10.732Z,1.30
2022-08-01T22:08:53.698Z,1.30
2022-08-01T22:11:27.946Z,1.52
2022-08-01T22:13:58.383Z,1.30
2022-08-01T22:16:27.077Z,1.10
2022-08-01T22:18:54.928Z,1.27
2022-08-01T22:21:22.385Z,1.35
2022-08-01T22:23:54.509Z,1.60
2022-08-01T22:26:28.609Z,1.13
2022-08-01T22:28:56.703Z,1.30
2022-08-01T22:31:24.363Z,1.30
2022-08-01T22:33:51.782Z,1.35
2022-08-01T22:36:20.613Z,1.52
2022-08-01T22:38:48.217Z,1.48
2022-08-01T22:41:19.463Z,1.40
2022-08-01T22:44:10.119Z,1.10
2022-08-01T22:49:25.960Z,1.40
2022-08-01T22:52:03.071Z,1.77
2022-08-01T22:54:37.660Z,1.70
2022-08-01T22:57:15.967Z,1.20
2022-08-01T23:00:07.023Z,1.50
2022-08-01T23:02:39.767Z,1.52
2022-08-01T23:05:14.341Z,1.20
2022-08-01T23:07:49.984Z,1.45
2022-08-01T23:10:20.417Z,1.27
2022-08-01T23:12:50.350Z,1.73
2022-08-01T23:15:18.145Z,1.35
2022-08-01T23:17:48.427Z,1.60
2022-08-01T23:20:16.895Z,1.60
2022-08-01T23:22:44.705Z,1.45
2022-08-01T23:25:14.310Z,1.70
2022-08-01T23:27:51.936Z,1.63
2022-08-01T23:30:34.318Z,1.60
2022-08-01T23:33:01.980Z,1.90
2022-08-01T23:35:30.280Z,1.85
2022-08-01T23:38:02.329Z,1.38
2022-08-01T23:40:31.989Z,1.55
2022-08-01T23:42:59.662Z,1.60
2022-08-01T23:45:27.010Z,1.60
2022-08-01T23:47:54.342Z,1.83
2022-08-01T23:50:22.380Z,1.60
2022-08-01T23:52:53.436Z,1.45
2022-08-01T23:55:36.736Z,1.90
2022-08-01T23:58:06.572Z,1.80
